createdAt,value
2023-05-04T00:00:14.926Z,34.30
2023-05-04T00:03:03.949Z,32.10
2023-05-04T00:05:33.146Z,33.20
2023-05-04T00:08:01.770Z,32.80
2023-05-04T00:10:33.341Z,34.40
2023-05-04T00:13:02.317Z,35.20
2023-05-04T00:15:29.740Z,33.10
2023-05-04T00:17:58.915Z,35.30
2023-05-04T00:20:25.455Z,35.00
2023-05-04T00:22:54.178Z,36.70
2023-05-04T00:25:23.214Z,35.40
2023-05-04T00:27:52.300Z,35.90
2023-05-04T00:30:19.847Z,38.00
2023-05-04T00:32:49.758Z,37.70
2023-05-04T00:35:16.445Z,36.80
2023-05-04T00:37:45.855Z,34.80
2023-05-04T00:40:12.513Z,33.80
2023-05-04T00:42:38.964Z,33.10
2023-05-04T00:45:05.917Z,30.90
2023-05-04T00:47:35.423Z,30.90
2023-05-04T00:50:03.650Z,32.10
2023-05-04T00:52:30.804Z,34.00
2023-05-04T00:54:59.727Z,31.60
2023-05-04T00:57:32.489Z,30.60
2023-05-04T01:00:01.561Z,31.30
2023-05-04T01:02:28.167Z,29.20
2023-05-04T01:04:57.459Z,28.50
2023-05-04T01:07:42.360Z,26.90
2023-05-04T03:01:25.799Z,60.00
2023-05-04T03:03:55.222Z,60.50
2023-05-04T03:06:24.070Z,61.10
2023-05-04T03:08:51.969Z,64.90
2023-05-04T03:11:23.248Z,64.00
2023-05-04T03:13:50.123Z,66.80
2023-05-04T03:16:20.484Z,69.30
2023-05-04T07:46:37.890Z,1.90
2023-05-04T07:49:05.254Z,1.80
2023-05-04T07:51:37.167Z,1.30
2023-05-04T07:54:03.659Z,1.00
2023-05-04T07:56:34.905Z,1.50
2023-05-04T07:59:01.586Z,2.00
2023-05-04T08:01:28.310Z,1.30
2023-05-04T08:03:57.245Z,1.30
2023-05-04T08:06:23.996Z,1.30
2023-05-04T08:08:53.064Z,1.50
2023-05-04T08:11:22.278Z,1.60
2023-05-04T08:13:49.810Z,1.60
2023-05-04T08:16:19.383Z,1.40
2023-05-04T08:18:50.706Z,1.50
2023-05-04T08:21:22.363Z,1.60
2023-05-04T08:23:52.344Z,1.30
2023-05-04T08:26:19.478Z,1.50
2023-05-04T08:28:48.349Z,1.70
2023-05-04T08:31:17.684Z,1.60
2023-05-04T08:33:50.791Z,1.30
2023-05-04T08:36:19.871Z,1.70
2023-05-04T08:38:49.999Z,1.50
2023-05-04T08:41:18.724Z,1.40
2023-05-04T08:43:48.784Z,1.30
2023-05-04T08:46:22.276Z,1.50
2023-05-04T08:48:53.763Z,1.60
2023-05-04T08:51:20.740Z,1.60
2023-05-04T08:53:50.010Z,1.00
2023-05-04T08:56:17.891Z,1.50
2023-05-04T08:58:51.523Z,1.20
2023-05-04T09:01:19.092Z,1.20
2023-05-04T09:03:52.899Z,1.20
2023-05-04T09:06:24.749Z,1.10
2023-05-04T09:08:51.170Z,1.30
2023-05-04T09:11:22.968Z,1.60
2023-05-04T09:13:54.769Z,1.30
2023-05-04T09:16:24.307Z,1.50
2023-05-04T09:18:51.126Z,1.40
2023-05-04T09:21:30.577Z,1.40
2023-05-04T09:23:57.735Z,1.40
2023-05-04T09:26:28.455Z,1.30
2023-05-04T09:29:13.505Z,1.20
2023-05-04T09:31:48.091Z,1.40
2023-05-04T09:34:14.867Z,1.50
2023-05-04T09:36:43.610Z,1.70
2023-05-04T09:39:14.899Z,1.30
2023-05-04T09:41:42.064Z,1.60
2023-05-04T09:44:23.178Z,1.30
2023-05-04T09:46:58.706Z,1.30
2023-05-04T09:49:38.240Z,1.50
2023-05-04T09:52:06.180Z,1.50
2023-05-04T09:54:38.165Z,1.60
2023-05-04T09:57:11.450Z,1.30
2023-05-04T09:59:38.983Z,1.70
2023-05-04T10:02:22.016Z,1.30
2023-05-04T10:04:53.250Z,1.70
2023-05-04T10:07:20.120Z,1.60
2023-05-04T10:09:48.179Z,1.40
2023-05-04T10:12:19.496Z,1.30
2023-05-04T10:14:48.466Z,1.50
2023-05-04T10:17:24.204Z,1.40
2023-05-04T10:20:11.234Z,1.60
2023-05-04T10:22:56.269Z,1.60
2023-05-04T10:26:12.616Z,1.50
2023-05-04T10:28:39.047Z,1.50
2023-05-04T10:31:10.693Z,1.20
2023-05-04T10:33:46.253Z,1.50
2023-05-04T10:36:12.757Z,1.80
2023-05-04T10:38:41.822Z,1.30
2023-05-04T10:41:21.686Z,1.60
2023-05-04T10:44:02.584Z,1.70
2023-05-04T10:46:34.362Z,1.80
2023-05-04T10:49:15.191Z,1.60
2023-05-04T10:51:49.325Z,1.70
2023-05-04T10:54:19.454Z,1.50
2023-05-04T10:56:59.996Z,1.60
2023-05-04T10:59:31.604Z,1.60
2023-05-04T11:02:02.283Z,1.50
2023-05-04T11:04:32.196Z,1.60
2023-05-04T11:07:06.013Z,1.50
2023-05-04T11:09:43.809Z,1.80
2023-05-04T11:12:19.205Z,1.40
2023-05-04T11:14:48.568Z,1.40
2023-05-04T11:19:54.180Z,1.60
2023-05-04T11:22:23.382Z,1.20
2023-05-04T11:24:49.884Z,1.70
2023-05-04T11:27:27.985Z,1.50
2023-05-04T11:30:04.488Z,1.50
2023-05-04T11:32:38.751Z,1.60
2023-05-04T11:35:11.107Z,1.10
2023-05-04T11:37:44.883Z,1.50
2023-05-04T11:40:30.105Z,1.50
2023-05-04T11:42:59.775Z,1.20
2023-05-04T11:45:33.280Z,1.50
2023-05-04T11:48:00.774Z,1.40
2023-05-04T11:50:28.463Z,1.60
2023-05-04T11:53:05.858Z,1.60
2023-05-04T11:55:32.398Z,1.70
2023-05-04T11:58:03.918Z,1.60
2023-05-04T12:00:38.123Z,1.30
2023-05-04T12:03:14.384Z,1.20
2023-05-04T12:05:51.755Z,1.40
2023-05-04T12:08:34.355Z,1.70
2023-05-04T12:11:24.817Z,1.80
2023-05-04T12:14:13.448Z,1.40
2023-05-04T12:16:54.911Z,1.30
2023-05-04T12:19:24.047Z,1.40
2023-05-04T12:21:53.837Z,1.40
2023-05-04T12:24:28.930Z,1.40
2023-05-04T12:26:58.039Z,1.40
2023-05-04T12:29:29.093Z,1.40
2023-05-04T12:31:55.995Z,1.60
2023-05-04T12:34:27.458Z,2.00
2023-05-04T12:36:57.700Z,1.30
2023-05-04T12:39:24.078Z,1.50
2023-05-04T12:41:55.115Z,1.80
2023-05-04T12:44:24.228Z,1.70
2023-05-04T12:46:53.410Z,1.70
2023-05-04T12:49:19.926Z,2.00
2023-05-04T12:51:47.434Z,1.90
2023-05-04T12:54:21.244Z,1.80
2023-05-04T12:56:50.016Z,2.00
2023-05-04T12:59:19.013Z,2.00
2023-05-04T13:01:45.516Z,1.70
2023-05-04T13:04:14.591Z,1.90
2023-05-04T13:06:44.588Z,1.40
2023-05-04T13:09:14.798Z,1.80
2023-05-04T14:33:31.289Z,2.10
2023-05-04T14:36:02.713Z,1.70
2023-05-04T14:38:29.276Z,1.40
2023-05-04T14:40:58.768Z,1.40
2023-05-04T14:43:28.005Z,1.50
2023-05-04T14:46:00.281Z,1.60
2023-05-04T14:48:28.825Z,1.50
2023-05-04T14:50:56.256Z,1.80
2023-05-04T14:58:11.957Z,1.80
2023-05-04T15:00:38.534Z,1.70
2023-05-04T15:03:05.922Z,1.80
2023-05-04T15:05:36.973Z,1.70
2023-05-04T15:08:03.569Z,1.80
2023-05-04T15:10:32.561Z,1.50
2023-05-04T15:13:03.992Z,1.10
2023-05-04T15:16:03.949Z,1.40
2023-05-04T15:18:31.451Z,1.30
2023-05-04T15:21:00.473Z,1.50
2023-05-04T15:23:29.363Z,1.60
2023-05-04T15:26:31.181Z,1.60
2023-05-04T15:32:36.780Z,1.80
2023-05-04T15:35:21.078Z,1.70
2023-05-04T15:37:50.080Z,1.70
2023-05-04T15:40:16.441Z,1.50
2023-05-04T15:42:42.936Z,1.70
2023-05-04T15:45:11.326Z,1.30
2023-05-04T15:48:08.457Z,1.30
2023-05-04T15:50:35.454Z,1.60
2023-05-04T15:53:02.828Z,1.60
2023-05-04T15:55:32.680Z,1.50
2023-05-04T15:58:01.533Z,1.40
2023-05-04T16:00:30.711Z,1.50
2023-05-04T16:02:58.639Z,1.50
2023-05-04T17:03:00.110Z,1.30
2023-05-04T17:05:29.435Z,1.40
2023-05-04T17:07:55.821Z,1.50
2023-05-04T17:10:26.992Z,1.50
2023-05-04T17:12:54.307Z,1.50
2023-05-04T17:15:22.984Z,1.20
2023-05-04T17:17:49.543Z,1.40
2023-05-04T17:20:16.291Z,1.40
2023-05-04T17:22:43.079Z,1.80
2023-05-04T17:25:10.860Z,1.80
2023-05-04T17:27:37.618Z,1.70
2023-05-04T17:30:07.294Z,2.30
2023-05-04T17:32:37.427Z,2.20
2023-05-04T17:35:15.973Z,2.40
2023-05-04T17:37:54.534Z,2.40
2023-05-04T17:40:23.612Z,2.90
2023-05-04T17:42:50.117Z,2.40
2023-05-04T17:45:16.643Z,2.30
2023-05-04T17:47:45.697Z,2.50
2023-05-04T17:50:14.389Z,2.20
2023-05-04T17:52:46.395Z,2.40
2023-05-04T17:55:17.796Z,2.00
2023-05-04T17:57:47.025Z,2.00
2023-05-04T18:00:13.924Z,2.10
2023-05-04T18:02:40.499Z,2.20
2023-05-04T18:05:07.514Z,2.30
2023-05-04T18:07:33.898Z,2.10
2023-05-04T18:10:01.367Z,2.50
2023-05-04T18:12:28.336Z,2.00
2023-05-04T18:14:57.166Z,1.90
2023-05-04T18:17:28.640Z,2.40
2023-05-04T18:19:55.927Z,2.50
2023-05-04T18:22:24.737Z,2.20
2023-05-04T18:24:53.380Z,2.20
2023-05-04T18:27:22.492Z,2.40
2023-05-04T18:29:52.048Z,2.80
2023-05-04T18:32:18.592Z,3.00
2023-05-04T18:34:50.937Z,2.90
2023-05-04T18:37:17.485Z,2.40
2023-05-04T18:39:47.830Z,2.70
2023-05-04T18:42:17.344Z,2.80
2023-05-04T18:44:44.897Z,2.80
2023-05-04T18:47:11.295Z,3.10
2023-05-04T18:49:38.237Z,2.90
2023-05-04T18:52:04.786Z,2.60
2023-05-04T18:54:34.554Z,3.00
2023-05-04T18:57:02.702Z,3.30
2023-05-04T18:59:34.472Z,3.40
2023-05-04T19:02:01.520Z,3.50
2023-05-04T19:04:32.754Z,3.90
2023-05-04T19:07:01.580Z,3.30
2023-05-04T19:09:30.856Z,3.50
2023-05-04T19:11:59.929Z,3.40
2023-05-04T19:14:30.258Z,4.60
2023-05-04T19:17:00.167Z,6.70
2023-05-04T19:19:28.776Z,7.50
2023-05-04T19:21:58.017Z,7.80
2023-05-04T19:24:24.892Z,6.30
2023-05-04T19:26:54.108Z,7.40
2023-05-04T19:29:20.501Z,6.50
2023-05-04T19:31:47.345Z,6.80
2023-05-04T19:34:17.695Z,7.20
2023-05-04T19:36:49.277Z,6.60
2023-05-04T19:39:19.322Z,6.70
2023-05-04T19:41:48.888Z,6.70
2023-05-04T19:44:15.449Z,6.90
2023-05-04T19:46:44.056Z,7.00
2023-05-04T19:49:13.146Z,6.30
2023-05-04T19:51:41.808Z,6.00
2023-05-04T19:54:11.860Z,6.70
2023-05-04T19:56:40.723Z,6.30
2023-05-04T19:59:07.095Z,6.50
2023-05-04T20:01:36.499Z,6.60
2023-05-04T20:04:07.636Z,6.50
2023-05-04T20:06:36.848Z,5.90
2023-05-04T20:09:03.436Z,6.20
2023-05-04T20:11:33.158Z,6.90
2023-05-04T20:14:02.199Z,6.70
2023-05-04T20:16:28.766Z,7.10
2023-05-04T20:18:57.548Z,7.10
2023-05-04T20:21:27.233Z,7.10
2023-05-04T20:23:57.926Z,6.80
2023-05-04T20:26:27.024Z,8.10
2023-05-04T20:28:53.619Z,8.40
2023-05-04T20:31:22.186Z,8.50
2023-05-04T20:33:51.141Z,10.50
2023-05-04T20:36:18.296Z,8.40
2023-05-04T20:38:49.091Z,9.20
2023-05-04T20:41:15.479Z,9.30
2023-05-04T20:43:44.343Z,8.60
2023-05-04T20:46:13.517Z,9.00
2023-05-04T20:48:40.272Z,8.50
2023-05-04T20:51:14.335Z,8.00
2023-05-04T20:53:41.991Z,7.90
2023-05-04T20:56:14.217Z,7.60
2023-05-04T20:58:40.901Z,8.70
2023-05-04T21:01:11.859Z,8.30
2023-05-04T21:03:38.376Z,8.00
2023-05-04T21:06:05.852Z,8.50
2023-05-04T21:08:32.362Z,8.30
2023-05-04T21:11:05.873Z,8.30
2023-05-04T21:13:39.201Z,7.10
2023-05-04T21:16:08.229Z,6.50
2023-05-04T21:18:42.128Z,5.90
2023-05-04T21:21:11.174Z,4.90
2023-05-04T21:23:40.648Z,5.30
2023-05-04T21:26:09.836Z,5.60
2023-05-04T21:28:36.315Z,5.60
2023-05-04T21:31:10.751Z,5.60
2023-05-04T21:33:42.456Z,6.30
2023-05-04T21:36:13.273Z,6.60
2023-05-04T21:38:40.473Z,6.40
2023-05-04T21:41:14.637Z,6.90
2023-05-04T21:43:41.952Z,6.70
2023-05-04T21:46:08.458Z,5.00
2023-05-04T21:48:37.959Z,5.10
2023-05-04T21:51:06.921Z,7.40
2023-05-04T21:53:36.348Z,7.00
2023-05-04T21:56:07.749Z,7.10
2023-05-04T21:58:36.550Z,6.70
2023-05-04T22:01:03.267Z,8.90
2023-05-04T22:03:31.073Z,7.20
2023-05-04T22:06:02.840Z,8.30
2023-05-04T22:08:29.393Z,7.00
2023-05-04T22:10:59.177Z,7.60
2023-05-04T22:13:25.746Z,7.80
2023-05-04T22:15:53.092Z,8.70
2023-05-04T22:18:20.319Z,7.80
2023-05-04T22:20:50.155Z,8.80
2023-05-04T22:23:16.736Z,9.10
2023-05-04T22:25:45.381Z,8.90
2023-05-04T22:28:11.892Z,9.60
2023-05-04T22:30:41.013Z,9.30
2023-05-04T22:33:07.735Z,9.30
2023-05-04T22:35:34.128Z,8.80
2023-05-04T22:38:05.741Z,8.50
2023-05-04T22:40:34.876Z,9.70
2023-05-04T22:43:04.497Z,8.50
2023-05-04T22:45:30.900Z,8.70
2023-05-04T22:47:57.452Z,8.60
2023-05-04T22:50:24.016Z,9.10
2023-05-04T22:52:58.946Z,7.80
2023-05-04T22:55:28.056Z,8.30
2023-05-04T22:57:59.060Z,9.10
2023-05-04T23:00:32.487Z,8.90
2023-05-04T23:03:12.547Z,8.50
2023-05-04T23:05:39.086Z,9.50
2023-05-04T23:08:10.829Z,9.00
2023-05-04T23:10:40.041Z,9.20
2023-05-04T23:13:09.205Z,9.30
2023-05-04T23:15:35.712Z,9.60
2023-05-04T23:18:05.121Z,9.50
2023-05-04T23:20:36.327Z,10.10
2023-05-04T23:23:05.712Z,9.30
2023-05-04T23:25:32.201Z,9.70
2023-05-04T23:27:58.883Z,9.80
2023-05-04T23:30:28.046Z,8.90
2023-05-04T23:32:57.826Z,9.10
2023-05-04T23:35:26.113Z,8.80
2023-05-04T23:37:57.538Z,9.10
2023-05-04T23:40:26.087Z,8.50
2023-05-04T23:42:57.872Z,8.40
2023-05-04T23:45:24.345Z,8.50
2023-05-04T23:47:53.090Z,8.30
2023-05-04T23:50:22.204Z,8.90
2023-05-04T23:52:48.652Z,8.80
2023-05-04T23:55:15.147Z,8.30
2023-05-04T23:57:47.238Z,9.10
